Time;durP1;ratioP1;P1;durP2;ratioP2;P2;SDS_P1;SDS_P2;PMS_P1;PMS_P2;Temp;Humidity;BMP_temperature;BMP_pressure;BME280_temperature;BME280_humidity;BME280_pressure;Samples;Min_cycle;Max_cycle;Signal;HPM_P1;HPM_P2
2022/01/08 00:01:54;;;;;;;2.70;1.13;;;20.30;50.00;;;;;;5014412;28;20068;-63
2022/01/08 00:04:19;;;;;;;4.53;1.30;;;20.30;49.90;;;;;;5031833;28;20241;-63
2022/01/08 00:06:45;;;;;;;4.07;1.17;;;20.30;50.00;;;;;;5029902;28;20057;-63
2022/01/08 00:09:11;;;;;;;3.97;1.35;;;20.20;49.80;;;;;;5032617;28;20041;-63
2022/01/08 00:11:40;;;;;;;2.90;1.13;;;20.20;49.80;;;;;;5032101;28;20049;-63
2022/01/08 00:14:06;;;;;;;3.10;1.23;;;20.20;49.80;;;;;;5031913;28;20045;-63
2022/01/08 00:16:33;;;;;;;3.50;1.45;;;20.20;49.80;;;;;;5014135;28;20046;-63
2022/01/08 00:18:59;;;;;;;4.85;1.27;;;20.20;49.80;;;;;;5013876;28;20132;-63
2022/01/08 00:21:24;;;;;;;3.88;1.50;;;20.10;49.80;;;;;;5031136;28;20149;-63
2022/01/08 00:23:50;;;;;;;4.75;1.40;;;20.10;49.70;;;;;;5032436;28;20053;-63
2022/01/08 00:26:15;;;;;;;3.53;1.33;;;20.10;49.70;;;;;;5031143;28;20042;-63
2022/01/08 00:28:41;;;;;;;4.78;1.65;;;20.10;49.80;;;;;;5032103;28;20049;-63
2022/01/08 00:31:10;;;;;;;5.32;1.58;;;20.10;49.70;;;;;;5032726;28;20114;-63
2022/01/08 00:33:36;;;;;;;3.58;1.70;;;20.10;49.70;;;;;;5016481;28;20385;-63
2022/01/08 00:36:02;;;;;;;5.78;1.63;;;20.00;49.60;;;;;;5035308;28;20081;-64
2022/01/08 00:38:28;;;;;;;3.97;1.60;;;20.10;49.60;;;;;;5035319;28;20131;-63
2022/01/08 00:40:53;;;;;;;4.85;1.75;;;20.00;49.60;;;;;;5034892;28;20085;-63
2022/01/08 00:43:19;;;;;;;4.38;1.75;;;20.00;49.50;;;;;;5035049;28;20049;-63
2022/01/08 00:45:45;;;;;;;4.28;1.83;;;20.00;49.50;;;;;;5017914;28;20052;-63
2022/01/08 00:48:10;;;;;;;4.63;1.73;;;20.00;49.50;;;;;;5034794;28;20053;-63
2022/01/08 00:50:36;;;;;;;3.30;1.60;;;20.00;49.50;;;;;;5034621;28;20080;-63
2022/01/08 00:53:01;;;;;;;4.88;1.48;;;20.00;49.50;;;;;;5044433;28;20057;-63
2022/01/08 00:55:27;;;;;;;4.25;1.67;;;19.90;49.40;;;;;;5034599;28;20476;-63
2022/01/08 00:57:52;;;;;;;4.93;1.88;;;20.00;49.50;;;;;;5034296;28;20104;-63
2022/01/08 01:00:18;;;;;;;3.20;1.55;;;19.90;49.50;;;;;;5035179;28;20384;-63
2022/01/08 01:02:43;;;;;;;3.28;1.30;;;19.90;50.20;;;;;;5034035;28;20049;-63
2022/01/08 01:05:09;;;;;;;4.32;1.60;;;19.90;49.50;;;;;;5034828;28;20091;-63
2022/01/08 01:07:35;;;;;;;5.43;1.77;;;19.90;49.50;;;;;;5034479;28;20439;-63
2022/01/08 01:10:00;;;;;;;2.75;1.33;;;19.90;49.50;;;;;;5033006;28;20065;-63
2022/01/08 01:12:26;;;;;;;4.13;1.80;;;19.90;49.50;;;;;;5034207;28;20041;-63
2022/01/08 01:14:51;;;;;;;4.63;1.52;;;19.90;49.50;;;;;;5034884;28;20045;-63
2022/01/08 01:17:17;;;;;;;3.90;1.58;;;19.90;49.50;;;;;;5016374;28;20136;-63
2022/01/08 01:19:43;;;;;;;3.55;1.63;;;19.90;49.50;;;;;;5034898;28;20187;-63
2022/01/08 01:22:09;;;;;;;4.35;1.65;;;19.90;49.50;;;;;;5034757;28;20476;-63
2022/01/08 01:24:36;;;;;;;3.58;1.60;;;19.90;49.50;;;;;;5033919;28;20041;-63
2022/01/08 01:29:57;;;;;;;4.53;1.50;;;19.90;49.40;;;;;;5012834;28;20045;-63
2022/01/08 01:43:36;;;;;;;3.45;1.20;;;19.90;49.40;;;;;;5033201;28;20503;-63
2022/01/08 01:48:46;;;;;;;4.00;1.30;;;20.00;49.50;;;;;;5016674;28;20480;-63
2022/01/08 01:51:22;;;;;;;3.60;1.20;;;20.00;49.50;;;;;;5033166;28;20041;-63
2022/01/08 01:53:47;;;;;;;4.53;1.48;;;20.00;49.50;;;;;;5034417;28;20052;-63
2022/01/08 01:56:15;;;;;;;3.25;1.33;;;20.00;49.50;;;;;;5034091;28;20053;-64
2022/01/08 01:58:41;;;;;;;3.70;1.60;;;20.00;49.40;;;;;;5033429;28;20076;-63
2022/01/08 02:01:06;;;;;;;3.67;1.48;;;20.00;49.40;;;;;;5033000;28;20088;-63
2022/01/08 02:03:32;;;;;;;5.10;1.67;;;20.00;49.40;;;;;;4999783;28;20499;-63
2022/01/08 02:05:58;;;;;;;4.13;1.42;;;20.00;49.40;;;;;;5032946;28;20034;-63
2022/01/08 02:08:23;;;;;;;3.55;1.38;;;20.00;49.40;;;;;;5015884;28;20400;-63
2022/01/08 02:10:49;;;;;;;2.83;1.27;;;20.00;49.40;;;;;;5012931;28;20088;-63
2022/01/08 02:13:24;;;;;;;2.90;1.20;;;20.00;49.40;;;;;;5012927;28;20067;-63
2022/01/08 02:15:52;;;;;;;2.72;1.20;;;20.00;49.40;;;;;;5013980;28;20456;-63
2022/01/08 02:18:23;;;;;;;2.90;1.23;;;20.00;49.40;;;;;;5013662;28;20045;-63
2022/01/08 02:20:48;;;;;;;3.20;1.33;;;20.00;49.40;;;;;;5011719;28;20053;-63
2022/01/08 02:23:14;;;;;;;4.32;1.70;;;20.00;49.40;;;;;;5013914;28;20128;-63
2022/01/08 02:25:39;;;;;;;3.65;1.48;;;19.90;49.30;;;;;;5013298;28;20053;-63
2022/01/08 02:28:05;;;;;;;4.00;1.50;;;19.90;49.30;;;;;;5014108;28;20073;-63
2022/01/08 02:30:31;;;;;;;2.45;1.30;;;20.00;49.30;;;;;;5012724;28;20080;-63
2022/01/08 02:32:57;;;;;;;2.67;1.10;;;20.00;49.30;;;;;;5012055;28;20038;-63
2022/01/08 02:35:22;;;;;;;2.78;1.17;;;19.90;49.30;;;;;;5013612;28;20049;-63
2022/01/08 02:37:49;;;;;;;3.53;1.38;;;20.00;49.30;;;;;;5013674;28;20041;-63
2022/01/08 02:40:15;;;;;;;3.53;1.50;;;19.90;49.30;;;;;;5012905;28;20073;-63
2022/01/08 02:42:50;;;;;;;3.97;1.20;;;20.00;49.30;;;;;;5013961;28;20120;-63
2022/01/08 02:45:16;;;;;;;4.35;1.40;;;20.00;49.30;;;;;;5013376;28;20057;-63
2022/01/08 02:47:41;;;;;;;3.35;1.10;;;20.00;49.30;;;;;;5013068;28;20041;-63
2022/01/08 02:50:07;;;;;;;2.83;1.55;;;20.00;49.30;;;;;;5013702;28;20373;-63
2022/01/08 02:52:33;;;;;;;3.47;1.40;;;20.00;49.30;;;;;;5011494;28;20046;-63
2022/01/08 02:54:58;;;;;;;4.10;1.38;;;20.00;49.30;;;;;;5012463;28;20050;-63
2022/01/08 02:57:24;;;;;;;2.97;1.20;;;20.00;49.30;;;;;;5013127;28;20115;-63
2022/01/08 02:59:49;;;;;;;2.22;1.10;;;20.00;49.30;;;;;;5013426;28;20046;-63
2022/01/08 03:02:15;;;;;;;2.65;1.20;;;20.00;49.30;;;;;;5012523;28;20052;-63
2022/01/08 03:04:41;;;;;;;2.63;1.20;;;20.00;49.20;;;;;;5013281;28;20504;-63
2022/01/08 03:07:06;;;;;;;3.53;1.45;;;20.00;49.20;;;;;;5012329;28;20045;-63
2022/01/08 03:09:36;;;;;;;1.98;1.08;;;20.10;49.30;;;;;;5014825;28;20065;-63
2022/01/08 03:12:02;;;;;;;3.63;1.23;;;20.10;49.20;;;;;;5015500;28;20056;-63
2022/01/08 03:14:27;;;;;;;3.83;1.33;;;20.10;49.20;;;;;;5032756;28;20436;-63
2022/01/08 03:16:53;;;;;;;2.78;1.20;;;20.00;49.10;;;;;;5032272;28;20045;-63
2022/01/08 03:19:19;;;;;;;2.33;1.10;;;20.00;49.10;;;;;;5014687;28;20065;-63
2022/01/08 03:21:51;;;;;;;3.33;1.20;;;20.00;49.00;;;;;;5032396;28;20530;-63
2022/01/08 03:24:25;;;;;;;3.28;1.20;;;20.10;49.10;;;;;;5032654;28;20045;-63
2022/01/08 03:26:50;;;;;;;3.25;1.30;;;20.10;49.10;;;;;;5033034;28;20551;-63
2022/01/08 03:29:16;;;;;;;3.28;1.20;;;20.10;49.00;;;;;;5031691;28;20042;-63
2022/01/08 03:31:41;;;;;;;3.72;1.20;;;20.00;48.90;;;;;;5014827;28;20132;-63
2022/01/08 03:34:07;;;;;;;2.75;1.40;;;20.10;49.00;;;;;;5032739;28;20041;-63
2022/01/08 03:36:33;;;;;;;2.50;0.95;;;20.10;48.90;;;;;;5013116;28;20046;-63
2022/01/08 03:38:58;;;;;;;2.78;1.00;;;20.10;48.90;;;;;;5032632;28;20045;-63
2022/01/08 03:41:24;;;;;;;2.30;1.02;;;20.10;48.90;;;;;;5032193;28;20042;-63
2022/01/08 03:43:50;;;;;;;3.55;1.00;;;20.10;48.90;;;;;;5031867;28;20052;-63
2022/01/08 03:46:19;;;;;;;2.03;1.00;;;20.10;48.90;;;;;;5032521;28;20045;-63
2022/01/08 03:48:46;;;;;;;2.15;0.80;;;20.10;48.90;;;;;;5032634;28;20046;-63
2022/01/08 03:51:13;;;;;;;2.63;0.88;;;20.10;49.00;;;;;;5031132;28;20515;-64
2022/01/08 03:53:38;;;;;;;2.25;1.23;;;20.10;49.00;;;;;;5032754;28;20033;-63
2022/01/08 03:56:04;;;;;;;3.08;1.10;;;20.10;49.00;;;;;;5032484;28;20377;-63
2022/01/08 03:58:30;;;;;;;3.80;1.10;;;20.10;49.00;;;;;;5031583;28;20469;-63
2022/01/08 04:00:55;;;;;;;1.77;0.80;;;20.10;49.00;;;;;;5031620;28;20053;-63
2022/01/08 04:03:21;;;;;;;1.98;0.90;;;20.10;49.00;;;;;;5013636;28;20050;-63
2022/01/08 04:05:47;;;;;;;3.25;1.08;;;20.10;49.00;;;;;;5031162;28;20101;-63
2022/01/08 04:08:13;;;;;;;1.83;0.80;;;20.20;49.00;;;;;;5036082;28;20046;-63
2022/01/08 04:10:38;;;;;;;3.20;0.90;;;20.10;49.00;;;;;;5036387;28;20061;-63
2022/01/08 04:13:10;;;;;;;3.63;1.00;;;20.20;49.00;;;;;;5017698;28;20546;-63
2022/01/08 04:15:39;;;;;;;2.58;0.93;;;20.20;49.00;;;;;;5018405;28;20056;-63
2022/01/08 04:18:05;;;;;;;2.47;0.93;;;20.10;48.90;;;;;;5018367;28;20057;-63
2022/01/08 04:20:30;;;;;;;3.47;1.20;;;20.10;48.90;;;;;;5035091;28;20045;-63
2022/01/08 04:22:56;;;;;;;1.60;0.90;;;20.20;48.90;;;;;;5035890;28;20091;-63
2022/01/08 04:25:22;;;;;;;2.20;0.90;;;20.20;48.80;;;;;;5035008;28;20049;-63
2022/01/08 04:27:48;;;;;;;2.15;0.68;;;20.10;48.80;;;;;;5036092;28;20033;-63
2022/01/08 04:30:13;;;;;;;2.75;0.90;;;20.10;48.70;;;;;;5018149;28;20511;-63
2022/01/08 04:32:39;;;;;;;3.45;1.30;;;20.10;48.70;;;;;;5017691;28;20488;-63
2022/01/08 04:35:05;;;;;;;1.80;0.90;;;20.20;48.80;;;;;;5035882;28;20048;-63
2022/01/08 04:37:31;;;;;;;2.08;0.70;;;20.20;48.80;;;;;;5035183;28;20049;-63
2022/01/08 04:39:56;;;;;;;2.15;0.90;;;20.20;48.80;;;;;;5034905;28;20034;-63
2022/01/08 04:42:22;;;;;;;3.30;1.00;;;20.20;48.70;;;;;;5035293;28;20480;-63
2022/01/08 04:44:47;;;;;;;1.50;0.70;;;20.20;48.70;;;;;;5035609;28;20123;-63
2022/01/08 04:47:13;;;;;;;2.33;0.90;;;20.20;48.70;;;;;;5034360;28;20076;-63
2022/01/08 04:49:39;;;;;;;1.30;0.63;;;20.20;48.70;;;;;;5017792;28;20136;-63
2022/01/08 04:52:04;;;;;;;2.25;0.70;;;20.20;48.60;;;;;;5017227;28;20515;-63
2022/01/08 04:54:30;;;;;;;2.17;0.80;;;20.20;49.40;;;;;;5034368;28;20048;-64
2022/01/08 04:56:55;;;;;;;1.60;0.60;;;20.20;48.70;;;;;;5035519;28;20411;-64
2022/01/08 04:59:21;;;;;;;2.03;0.88;;;20.20;48.70;;;;;;5035041;28;20037;-63
2022/01/08 05:01:46;;;;;;;1.23;0.63;;;20.20;48.60;;;;;;5008702;28;20485;-63
2022/01/08 05:04:12;;;;;;;1.35;0.60;;;20.20;48.60;;;;;;5017027;28;20042;-63
2022/01/08 05:06:38;;;;;;;1.95;0.70;;;20.20;48.60;;;;;;5034690;28;20048;-63
2022/01/08 05:09:03;;;;;;;2.67;0.88;;;20.20;48.60;;;;;;5034615;28;20048;-64
2022/01/08 05:11:29;;;;;;;1.10;0.60;;;20.20;48.60;;;;;;5034817;28;20049;-63
2022/01/08 05:13:55;;;;;;;2.20;0.70;;;20.20;48.60;;;;;;5017655;28;20045;-63
2022/01/08 05:16:21;;;;;;;2.13;0.73;;;20.20;48.60;;;;;;5033908;28;20381;-63
2022/01/08 05:18:49;;;;;;;3.05;0.85;;;20.20;48.60;;;;;;5033613;28;20403;-63
2022/01/08 05:23:40;;;;;;;1.70;0.60;;;20.20;48.60;;;;;;5034492;28;20390;-63
2022/01/08 05:26:05;;;;;;;2.13;0.85;;;20.20;48.70;;;;;;5017186;28;20042;-64
2022/01/08 05:28:31;;;;;;;2.13;0.68;;;20.30;48.60;;;;;;5034097;28;20049;-64
2022/01/08 05:30:56;;;;;;;1.98;0.70;;;20.30;48.70;;;;;;5034845;28;20045;-63
2022/01/08 05:33:22;;;;;;;2.78;0.77;;;20.20;48.60;;;;;;5034554;28;20053;-63
2022/01/08 05:35:47;;;;;;;2.03;0.70;;;20.30;48.70;;;;;;5033868;28;20037;-63
2022/01/08 05:38:13;;;;;;;0.98;0.60;;;20.30;48.60;;;;;;5034412;28;20052;-63
2022/01/08 05:40:38;;;;;;;1.67;0.73;;;20.30;48.70;;;;;;5017218;28;20064;-64
2022/01/08 05:43:04;;;;;;;2.60;0.70;;;20.20;48.60;;;;;;5034080;28;20388;-64
2022/01/08 05:45:30;;;;;;;2.05;0.63;;;20.30;48.70;;;;;;5034551;28;20203;-63
2022/01/08 05:47:55;;;;;;;3.17;0.70;;;20.30;48.70;;;;;;5034197;28;20846;-63
2022/01/08 05:50:21;;;;;;;2.08;0.63;;;20.20;48.60;;;;;;5033066;28;20045;-64
2022/01/08 05:52:48;;;;;;;2.88;0.70;;;20.30;48.60;;;;;;5034476;28;20050;-63
2022/01/08 05:55:14;;;;;;;1.20;0.60;;;20.30;48.70;;;;;;5016304;28;20444;-64
2022/01/08 05:57:40;;;;;;;1.67;0.63;;;20.30;48.60;;;;;;5033702;28;20563;-63
2022/01/08 06:00:07;;;;;;;1.50;0.70;;;20.30;48.70;;;;;;5034093;28;20037;-63
2022/01/08 06:02:32;;;;;;;1.80;0.85;;;20.30;48.60;;;;;;5015975;28;20053;-63
2022/01/08 06:04:58;;;;;;;1.77;0.60;;;20.30;48.60;;;;;;5033591;28;20046;-63
2022/01/08 06:07:24;;;;;;;1.10;0.63;;;20.30;48.70;;;;;;5033623;28;20038;-63
2022/01/08 06:09:49;;;;;;;1.33;0.60;;;20.30;48.70;;;;;;5016386;28;20057;-64
2022/01/08 06:12:15;;;;;;;2.40;0.73;;;20.30;48.60;;;;;;5015589;28;20516;-63
2022/01/08 06:14:40;;;;;;;2.33;0.70;;;20.30;48.60;;;;;;5034033;28;20056;-63
2022/01/08 06:17:06;;;;;;;2.05;0.80;;;20.30;48.70;;;;;;5016113;28;20566;-63
2022/01/08 06:19:32;;;;;;;1.92;0.75;;;20.30;48.60;;;;;;5015101;28;20046;-63
2022/01/08 06:21:58;;;;;;;1.20;0.60;;;20.30;48.70;;;;;;5033277;28;20493;-63
2022/01/08 06:24:24;;;;;;;2.70;0.98;;;20.30;48.70;;;;;;5033765;28;20033;-63
2022/01/08 06:26:49;;;;;;;1.77;0.60;;;20.30;48.70;;;;;;5033076;28;20057;-64
2022/01/08 06:29:15;;;;;;;2.90;0.90;;;20.30;48.70;;;;;;5032807;28;20049;-63
2022/01/08 06:31:40;;;;;;;3.13;0.70;;;20.30;48.70;;;;;;5033556;28;20058;-64
2022/01/08 06:34:06;;;;;;;1.50;0.60;;;20.30;48.70;;;;;;5032929;28;20510;-63
2022/01/08 06:36:31;;;;;;;1.55;0.55;;;20.30;48.70;;;;;;5015271;28;20045;-63
2022/01/08 06:38:57;;;;;;;2.05;0.73;;;20.30;48.60;;;;;;5032923;28;20045;-63
2022/01/08 06:41:22;;;;;;;2.88;0.90;;;20.30;48.60;;;;;;5033240;28;20049;-63
2022/01/08 06:43:48;;;;;;;1.70;0.77;;;20.30;48.60;;;;;;5033486;28;20048;-64
2022/01/08 06:46:13;;;;;;;1.55;0.70;;;20.30;48.60;;;;;;5032289;28;20037;-63
2022/01/08 06:48:40;;;;;;;1.77;0.70;;;20.30;48.60;;;;;;5033307;28;20045;-64
2022/01/08 06:51:06;;;;;;;1.77;0.60;;;20.30;48.60;;;;;;5015231;28;20045;-64
2022/01/08 06:53:31;;;;;;;1.48;0.57;;;20.30;48.50;;;;;;5032103;28;20060;-64
2022/01/08 06:55:57;;;;;;;2.30;0.70;;;20.40;48.60;;;;;;5033185;28;20396;-63
2022/01/08 06:58:25;;;;;;;2.33;0.75;;;20.30;48.50;;;;;;5033210;28;20120;-63
2022/01/08 07:00:50;;;;;;;1.48;0.60;;;20.30;48.60;;;;;;5032581;28;20041;-63
2022/01/08 07:03:16;;;;;;;1.50;0.63;;;20.30;48.50;;;;;;5014949;28;20623;-63
2022/01/08 07:05:41;;;;;;;1.48;0.63;;;20.30;48.50;;;;;;5032839;28;20045;-63
2022/01/08 07:08:07;;;;;;;2.15;0.60;;;20.30;48.50;;;;;;5032190;28;20152;-63
2022/01/08 07:10:32;;;;;;;2.42;0.60;;;20.30;48.50;;;;;;5032323;28;20049;-64
2022/01/08 07:12:58;;;;;;;1.75;0.75;;;20.40;48.60;;;;;;5033156;28;20087;-63
2022/01/08 07:15:24;;;;;;;1.20;0.60;;;20.40;48.60;;;;;;5033607;28;20038;-64
2022/01/08 07:17:49;;;;;;;2.47;0.60;;;20.40;48.60;;;;;;5034666;28;20051;-64
2022/01/08 07:20:15;;;;;;;2.65;0.50;;;20.40;48.50;;;;;;5032738;28;20420;-63
2022/01/08 07:22:40;;;;;;;1.17;0.60;;;20.30;48.50;;;;;;5031979;28;20057;-63
2022/01/08 07:25:07;;;;;;;2.67;0.50;;;20.40;48.60;;;;;;5015357;28;20045;-63
2022/01/08 07:27:33;;;;;;;2.45;0.77;;;20.40;48.60;;;;;;5032729;28;20060;-64
2022/01/08 07:30:03;;;;;;;2.67;0.70;;;20.40;48.50;;;;;;5014266;28;20124;-63
2022/01/08 07:32:28;;;;;;;3.78;0.77;;;20.40;48.50;;;;;;5032447;28;20085;-63
2022/01/08 07:34:54;;;;;;;2.55;0.73;;;20.40;49.20;;;;;;5032787;28;20073;-63
2022/01/08 07:37:19;;;;;;;1.75;0.60;;;20.30;48.50;;;;;;5031225;28;20076;-63
2022/01/08 07:39:45;;;;;;;2.10;0.60;;;20.40;48.50;;;;;;5015024;28;20403;-63
2022/01/08 07:42:10;;;;;;;2.05;0.60;;;20.40;48.50;;;;;;5030958;28;20128;-63
2022/01/08 07:44:36;;;;;;;1.20;0.50;;;20.30;48.50;;;;;;5032404;28;20061;-63
2022/01/08 07:47:01;;;;;;;2.47;0.77;;;20.40;48.50;;;;;;5031518;28;20049;-64
2022/01/08 07:49:27;;;;;;;2.13;0.60;;;20.40;48.50;;;;;;5013764;28;20070;-65
2022/01/08 07:51:52;;;;;;;3.20;0.90;;;20.40;48.50;;;;;;5031997;28;20064;-64
2022/01/08 07:54:18;;;;;;;2.95;0.80;;;20.40;48.50;;;;;;5014623;28;20052;-65
2022/01/08 07:56:43;;;;;;;3.20;0.73;;;20.40;48.50;;;;;;5031639;28;20058;-64
2022/01/08 07:59:09;;;;;;;2.47;0.70;;;20.40;48.50;;;;;;5032631;28;20104;-64
2022/01/08 08:01:34;;;;;;;3.58;0.70;;;20.40;48.50;;;;;;5014590;28;20489;-64
2022/01/08 08:04:00;;;;;;;2.70;0.70;;;20.40;48.50;;;;;;5032029;28;20050;-64
2022/01/08 08:06:25;;;;;;;2.92;0.75;;;20.40;48.60;;;;;;5031384;28;20038;-64
2022/01/08 08:08:51;;;;;;;3.45;0.98;;;20.40;48.50;;;;;;5032313;28;20076;-64
2022/01/08 08:11:16;;;;;;;3.05;0.90;;;20.40;48.60;;;;;;5031251;28;20139;-64
2022/01/08 08:13:42;;;;;;;2.40;0.80;;;20.40;48.70;;;;;;5014130;28;20122;-61
2022/01/08 08:16:07;;;;;;;3.70;0.80;;;20.40;48.70;;;;;;5013928;28;20045;-62
2022/01/08 08:18:34;;;;;;;3.88;0.85;;;20.40;48.90;;;;;;5010589;28;20484;-62
2022/01/08 08:20:59;;;;;;;3.28;0.68;;;20.40;49.10;;;;;;5031311;28;20052;-64
2022/01/08 08:23:25;;;;;;;3.88;0.85;;;20.40;49.30;;;;;;5014541;28;20129;-64
2022/01/08 08:25:50;;;;;;;1.38;0.70;;;20.40;49.40;;;;;;5031691;28;20053;-63
2022/01/08 08:28:16;;;;;;;6.40;0.90;;;20.50;49.60;;;;;;5014265;28;20060;-63
2022/01/08 08:30:41;;;;;;;3.17;0.70;;;20.40;49.70;;;;;;5032404;28;20469;-63
2022/01/08 08:33:07;;;;;;;4.00;0.90;;;20.50;49.80;;;;;;5031609;28;20049;-62
2022/01/08 08:35:33;;;;;;;4.28;0.85;;;20.40;49.70;;;;;;5031776;28;20562;-62
2022/01/08 08:37:58;;;;;;;2.15;0.60;;;20.50;50.00;;;;;;5031979;28;20500;-63
2022/01/08 08:40:24;;;;;;;2.95;0.80;;;20.50;49.90;;;;;;5012576;28;20481;-63
2022/01/08 08:42:49;;;;;;;2.70;0.90;;;20.50;50.10;;;;;;5031639;28;20092;-63
2022/01/08 08:45:15;;;;;;;2.20;0.73;;;20.50;50.10;;;;;;5030704;28;20091;-62
2022/01/08 08:47:40;;;;;;;2.20;0.77;;;20.50;50.10;;;;;;5031162;28;20053;-62
2022/01/08 08:50:07;;;;;;;3.42;0.80;;;20.50;50.20;;;;;;5014317;28;20049;-63
2022/01/08 08:52:33;;;;;;;3.40;0.77;;;20.50;50.20;;;;;;5031831;28;20527;-63
2022/01/08 08:54:59;;;;;;;3.17;0.70;;;20.50;50.10;;;;;;5034487;28;20053;-63
2022/01/08 08:57:24;;;;;;;3.97;0.70;;;20.60;50.30;;;;;;5034999;28;20044;-63
2022/01/08 08:59:50;;;;;;;2.55;0.82;;;20.50;50.20;;;;;;5034947;28;20034;-63
2022/01/08 09:02:15;;;;;;;5.22;0.77;;;20.50;50.10;;;;;;5034194;28;20068;-63
2022/01/08 09:04:41;;;;;;;3.15;0.85;;;20.60;50.20;;;;;;5035512;28;20550;-63
2022/01/08 09:07:07;;;;;;;1.90;0.60;;;20.50;50.10;;;;;;5015983;28;20484;-63
2022/01/08 09:09:33;;;;;;;2.92;0.80;;;20.60;50.30;;;;;;5015836;28;20065;-62
2022/01/08 09:11:58;;;;;;;2.35;0.73;;;20.60;50.20;;;;;;5034396;28;20477;-62
2022/01/08 09:14:24;;;;;;;2.08;0.70;;;20.60;50.20;;;;;;5016182;28;20129;-62
2022/01/08 09:16:52;;;;;;;2.35;0.70;;;20.60;50.10;;;;;;5034866;28;20033;-62
2022/01/08 09:19:17;;;;;;;2.80;0.80;;;20.60;50.10;;;;;;5034453;28;20056;-62
2022/01/08 09:21:43;;;;;;;3.60;0.88;;;20.60;50.10;;;;;;5034119;28;20404;-62
2022/01/08 09:24:10;;;;;;;3.40;1.00;;;20.60;50.10;;;;;;5035197;28;20045;-62
2022/01/08 09:26:35;;;;;;;2.22;0.70;;;20.60;50.00;;;;;;5034695;28;20041;-63
2022/01/08 09:29:01;;;;;;;3.85;0.90;;;20.70;50.00;;;;;;5034386;28;20501;-63
2022/01/08 09:31:26;;;;;;;5.45;1.10;;;20.70;49.90;;;;;;5034684;28;20049;-62
2022/01/08 09:33:52;;;;;;;3.15;0.77;;;20.70;49.90;;;;;;5016729;28;20412;-63
2022/01/08 09:36:17;;;;;;;2.47;0.77;;;20.70;50.00;;;;;;5015742;28;20041;-62
2022/01/08 09:38:43;;;;;;;2.33;0.88;;;20.70;50.00;;;;;;5031908;28;20429;-62
2022/01/08 09:41:08;;;;;;;3.30;0.90;;;20.70;50.00;;;;;;5028232;28;20049;-61
2022/01/08 09:43:35;;;;;;;2.92;1.00;;;20.70;50.00;;;;;;5029003;28;20038;-63
2022/01/08 09:46:01;;;;;;;2.17;0.65;;;20.70;49.80;;;;;;5029696;28;20053;-62
2022/01/08 09:48:26;;;;;;;5.75;1.05;;;20.80;50.00;;;;;;5028928;28;20045;-63
2022/01/08 09:50:52;;;;;;;2.92;0.95;;;20.70;49.90;;;;;;5010738;28;20042;-62
2022/01/08 09:53:17;;;;;;;5.22;1.40;;;20.70;49.70;;;;;;5029505;28;20038;-62
2022/01/08 09:55:43;;;;;;;3.63;1.20;;;20.70;49.10;;;;;;5030548;28;20063;-62
2022/01/08 09:58:09;;;;;;;3.30;1.00;;;20.70;48.80;;;;;;5024783;28;20485;-63
2022/01/08 10:00:35;;;;;;;4.57;0.90;;;20.70;48.80;;;;;;5033494;28;20563;-64
2022/01/08 10:03:21;;;;;;;4.45;1.10;;;20.70;48.90;;;;;;5033019;28;20049;-63
2022/01/08 10:05:48;;;;;;;6.38;1.27;;;20.70;49.10;;;;;;5032632;28;20049;-64
2022/01/08 10:08:15;;;;;;;4.45;0.80;;;20.70;49.00;;;;;;5016166;28;20531;-63
2022/01/08 10:10:40;;;;;;;5.18;1.33;;;20.80;49.00;;;;;;5015416;28;20416;-64
2022/01/08 10:13:06;;;;;;;4.40;1.02;;;20.80;49.10;;;;;;5016580;28;20057;-63
2022/01/08 10:18:33;;;;;;;5.15;0.90;;;20.80;49.20;;;;;;5032001;28;20058;-63
2022/01/08 10:20:59;;;;;;;2.13;0.60;;;20.80;49.40;;;;;;5011622;28;20034;-63
2022/01/08 10:23:28;;;;;;;3.97;0.90;;;20.80;49.50;;;;;;5015189;28;20048;-63
2022/01/08 10:26:16;;;;;;;4.82;0.93;;;20.80;49.70;;;;;;5032800;28;20044;-63
2022/01/08 10:28:43;;;;;;;;;;;20.80;49.80;;;;;;5014389;28;20377;-63
2022/01/08 10:31:11;;;;;;;5.15;0.90;;;20.80;49.90;;;;;;5014753;28;19921;-64
2022/01/08 10:33:37;;;;;;;2.15;0.77;;;20.80;49.80;;;;;;5015646;28;20045;-63
2022/01/08 10:36:03;;;;;;;7.22;1.15;;;20.80;49.90;;;;;;5033356;28;20041;-62
2022/01/08 10:38:29;;;;;;;7.03;1.17;;;20.80;50.00;;;;;;5032350;28;20037;-63
2022/01/08 10:40:56;;;;;;;4.68;1.08;;;20.80;50.00;;;;;;5015357;28;20045;-64
2022/01/08 10:43:23;;;;;;;3.75;0.98;;;20.90;50.10;;;;;;5032342;28;20080;-62
2022/01/08 10:45:48;;;;;;;6.10;1.10;;;20.90;50.00;;;;;;5032116;28;20532;-62
2022/01/08 10:48:26;;;;;;;4.15;1.13;;;20.90;50.10;;;;;;5032607;28;20108;-63
2022/01/08 10:50:52;;;;;;;;;;;20.90;50.10;;;;;;5032870;28;20064;-63
2022/01/08 10:53:17;;;;;;;3.88;0.90;;;20.80;50.00;;;;;;5013509;28;19921;-63
2022/01/08 10:55:43;;;;;;;3.58;0.80;;;20.80;50.00;;;;;;5014979;28;20128;-64
2022/01/08 10:58:08;;;;;;;3.05;0.82;;;20.90;50.10;;;;;;5031796;28;20041;-63
2022/01/08 11:00:34;;;;;;;4.13;0.80;;;20.90;50.10;;;;;;5014081;28;20844;-63
2022/01/08 11:02:59;;;;;;;3.08;0.75;;;20.90;50.00;;;;;;5032898;28;20127;-64
2022/01/08 11:05:26;;;;;;;6.85;0.90;;;20.90;50.10;;;;;;5015261;28;20052;-64
2022/01/08 11:07:51;;;;;;;3.20;0.60;;;20.90;50.10;;;;;;4998416;28;20052;-64
2022/01/08 11:10:20;;;;;;;3.80;1.00;;;20.90;50.10;;;;;;5029704;28;20060;-64
2022/01/08 11:12:47;;;;;;;5.72;1.15;;;20.90;50.00;;;;;;5013128;28;20072;-65
2022/01/08 11:17:44;;;;;;;6.30;1.13;;;20.90;50.00;;;;;;5033111;28;20049;-64
2022/01/08 11:20:10;;;;;;;3.75;1.20;;;20.90;50.10;;;;;;5014636;28;20061;-64
2022/01/08 11:22:38;;;;;;;3.70;1.00;;;20.90;50.10;;;;;;5014657;28;20084;-65
2022/01/08 11:25:09;;;;;;;3.47;0.80;;;20.90;50.10;;;;;;5014865;28;20392;-65
2022/01/08 11:27:51;;;;;;;2.78;0.80;;;20.90;50.20;;;;;;5031716;28;20076;-64
2022/01/08 11:30:22;;;;;;;2.63;0.70;;;20.90;50.10;;;;;;5014974;28;20053;-63
2022/01/08 11:32:49;;;;;;;6.15;1.02;;;20.90;50.10;;;;;;5033091;28;20099;-65
2022/01/08 11:35:16;;;;;;;2.72;0.80;;;20.90;50.10;;;;;;5030427;28;20481;-65
2022/01/08 11:37:46;;;;;;;4.72;1.20;;;20.90;50.10;;;;;;5032563;28;20052;-64
2022/01/08 11:40:12;;;;;;;2.53;0.98;;;20.90;50.10;;;;;;5015125;28;20105;-64
2022/01/08 11:42:39;;;;;;;3.17;0.98;;;20.90;50.00;;;;;;5013645;28;20045;-65
2022/01/08 11:45:06;;;;;;;2.53;0.98;;;20.90;50.00;;;;;;5031950;28;20053;-64
2022/01/08 11:47:31;;;;;;;2.72;0.80;;;20.90;49.90;;;;;;5032114;28;20064;-64
2022/01/08 11:49:58;;;;;;;2.65;0.80;;;20.90;50.00;;;;;;5014451;28;20030;-63
2022/01/08 11:52:24;;;;;;;2.80;0.98;;;20.90;50.00;;;;;;5013022;28;20049;-62
2022/01/08 11:54:50;;;;;;;3.25;0.95;;;20.90;50.00;;;;;;5031638;28;20397;-62
2022/01/08 11:57:26;;;;;;;2.78;0.80;;;20.90;50.00;;;;;;5031357;28;20124;-62
2022/01/08 11:59:57;;;;;;;4.60;0.85;;;20.90;50.00;;;;;;5032741;28;20064;-62
2022/01/08 12:02:33;;;;;;;4.22;0.95;;;20.90;50.00;;;;;;5013727;28;20053;-62
2022/01/08 12:04:59;;;;;;;3.65;0.85;;;20.90;50.00;;;;;;5032309;28;20076;-62
2022/01/08 12:07:39;;;;;;;5.43;1.08;;;20.90;50.00;;;;;;5032081;28;20081;-63
2022/01/08 12:10:24;;;;;;;3.67;1.02;;;20.80;50.00;;;;;;5031508;28;20053;-63
2022/01/08 12:12:54;;;;;;;4.45;1.20;;;20.90;50.10;;;;;;5032331;28;20096;-64
2022/01/08 12:15:42;;;;;;;3.42;1.10;;;20.80;49.90;;;;;;5030571;28;20044;-62
2022/01/08 12:18:09;;;;;;;3.22;1.10;;;20.80;49.70;;;;;;5030762;28;20053;-62
2022/01/08 12:21:01;;;;;;;4.63;1.20;;;20.80;49.80;;;;;;5031935;28;20111;-62
2022/01/08 12:23:36;;;;;;;3.95;1.20;;;20.80;49.70;;;;;;5010943;28;20046;-62
2022/01/08 12:26:28;;;;;;;3.60;1.10;;;20.80;49.60;;;;;;5028000;28;20077;-66
2022/01/08 12:28:59;;;;;;;3.83;0.95;;;20.70;49.60;;;;;;5012874;28;20053;-63
2022/01/08 12:31:42;;;;;;;4.88;1.08;;;20.80;49.80;;;;;;5032526;28;20525;-63
2022/01/08 12:34:24;;;;;;;2.67;0.82;;;20.70;49.70;;;;;;5035140;28;20048;-63
2022/01/08 12:36:54;;;;;;;5.63;1.48;;;20.70;49.60;;;;;;5034362;28;20049;-63
2022/01/08 12:39:24;;;;;;;3.95;1.08;;;20.70;49.40;;;;;;5017131;28;20053;-63
2022/01/08 12:41:49;;;;;;;3.80;1.23;;;20.70;49.30;;;;;;5034861;28;20502;-63
2022/01/08 12:44:27;;;;;;;4.57;1.23;;;20.70;49.30;;;;;;5035420;28;20080;-63
2022/01/08 12:46:52;;;;;;;3.95;1.05;;;20.70;49.30;;;;;;5017614;28;20099;-63
2022/01/08 12:49:18;;;;;;;6.13;1.20;;;20.70;49.40;;;;;;5035450;28;20041;-63
2022/01/08 12:51:50;;;;;;;3.55;1.05;;;20.70;49.40;;;;;;5017052;28;20050;-63
2022/01/08 12:54:20;;;;;;;3.50;1.15;;;20.70;49.40;;;;;;5035323;28;20171;-63
2022/01/08 12:56:49;;;;;;;6.30;1.33;;;20.70;49.30;;;;;;5035553;28;20111;-63
2022/01/08 12:59:15;;;;;;;2.22;1.08;;;20.70;49.30;;;;;;5016698;28;20056;-63
2022/01/08 13:01:41;;;;;;;2.22;0.88;;;20.70;49.30;;;;;;5035686;28;20041;-63
2022/01/08 13:04:15;;;;;;;5.05;1.55;;;20.70;49.30;;;;;;5035335;28;20435;-63
2022/01/08 13:06:40;;;;;;;3.85;1.10;;;20.70;49.30;;;;;;5016671;28;20469;-63
2022/01/08 13:09:07;;;;;;;3.25;1.02;;;20.70;49.30;;;;;;5035510;28;20049;-63
2022/01/08 13:11:34;;;;;;;3.80;1.20;;;20.70;49.30;;;;;;5034754;28;20092;-63